sensor_id;sensor_type;location;lat;lon;timestamp;temperature;humidity
7445;DHT22;3764;48.126;11.594;2023-11-21T00:00:00;8.50;99.90
7445;DHT22;3764;48.126;11.594;2023-11-21T00:02:28;8.60;99.90
7445;DHT22;3764;48.126;11.594;2023-11-21T00:04:55;8.50;99.90
7445;DHT22;3764;48.126;11.594;2023-11-21T00:07:22;8.50;99.90
7445;DHT22;3764;48.126;11.594;2023-11-21T00:09:49;8.50;99.90
7445;DHT22;3764;48.126;11.594;2023-11-21T00:12:18;8.40;99.90
7445;DHT22;3764;48.126;11.594;2023-11-21T00:14:46;8.40;99.90
7445;DHT22;3764;48.126;11.594;2023-11-21T00:17:13;8.40;99.90
7445;DHT22;3764;48.126;11.594;2023-11-21T00:19:40;8.30;99.90
7445;DHT22;3764;48.126;11.594;2023-11-21T00:22:08;8.30;99.90
7445;DHT22;3764;48.126;11.594;2023-11-21T00:24:35;8.30;99.90
7445;DHT22;3764;48.126;11.594;2023-11-21T00:27:03;8.30;99.90
7445;DHT22;3764;48.126;11.594;2023-11-21T00:29:31;8.30;99.90
7445;DHT22;3764;48.126;11.594;2023-11-21T00:31:58;8.20;99.90
7445;DHT22;3764;48.126;11.594;2023-11-21T00:34:25;8.20;99.90
7445;DHT22;3764;48.126;11.594;2023-11-21T00:36:53;8.20;99.90
7445;DHT22;3764;48.126;11.594;2023-11-21T00:39:20;8.20;99.90
7445;DHT22;3764;48.126;11.594;2023-11-21T00:41:48;8.20;99.90
7445;DHT22;3764;48.126;11.594;2023-11-21T00:44:15;8.20;99.90
7445;DHT22;3764;48.126;11.594;2023-11-21T00:46:44;8.20;99.90
7445;DHT22;3764;48.126;11.594;2023-11-21T00:49:11;8.20;99.90
7445;DHT22;3764;48.126;11.594;2023-11-21T00:51:38;8.20;99.90
7445;DHT22;3764;48.126;11.594;2023-11-21T00:54:06;8.20;99.90
7445;DHT22;3764;48.126;11.594;2023-11-21T00:56:33;8.20;99.90
7445;DHT22;3764;48.126;11.594;2023-11-21T00:59:00;8.20;99.90
7445;DHT22;3764;48.126;11.594;2023-11-21T01:01:27;8.10;99.90
7445;DHT22;3764;48.126;11.594;2023-11-21T01:03:56;8.10;99.90
7445;DHT22;3764;48.126;11.594;2023-11-21T01:06:23;8.00;99.90
7445;DHT22;3764;48.126;11.594;2023-11-21T01:08:50;7.90;99.90
7445;DHT22;3764;48.126;11.594;2023-11-21T01:11:18;7.90;99.90
7445;DHT22;3764;48.126;11.594;2023-11-21T01:13:45;7.90;99.90
7445;DHT22;3764;48.126;11.594;2023-11-21T01:16:12;7.80;99.90
7445;DHT22;3764;48.126;11.594;2023-11-21T01:18:39;7.80;99.90
7445;DHT22;3764;48.126;11.594;2023-11-21T01:21:08;7.80;99.90
7445;DHT22;3764;48.126;11.594;2023-11-21T01:23:35;7.70;99.90
7445;DHT22;3764;48.126;11.594;2023-11-21T01:26:02;7.70;99.90
7445;DHT22;3764;48.126;11.594;2023-11-21T01:28:30;7.70;99.90
7445;DHT22;3764;48.126;11.594;2023-11-21T01:30:57;7.70;99.90
7445;DHT22;3764;48.126;11.594;2023-11-21T01:33:24;7.60;99.90
7445;DHT22;3764;48.126;11.594;2023-11-21T01:35:52;7.60;99.90
7445;DHT22;3764;48.126;11.594;2023-11-21T01:38:22;7.60;99.90
7445;DHT22;3764;48.126;11.594;2023-11-21T01:40:49;7.60;99.90
7445;DHT22;3764;48.126;11.594;2023-11-21T01:43:16;7.60;99.90
7445;DHT22;3764;48.126;11.594;2023-11-21T01:45:43;7.60;99.90
7445;DHT22;3764;48.126;11.594;2023-11-21T01:48:13;7.60;99.90
7445;DHT22;3764;48.126;11.594;2023-11-21T01:50:42;7.60;99.90
7445;DHT22;3764;48.126;11.594;2023-11-21T01:53:12;7.60;99.90
7445;DHT22;3764;48.126;11.594;2023-11-21T01:55:41;7.50;99.90
7445;DHT22;3764;48.126;11.594;2023-11-21T01:58:10;7.60;99.90
7445;DHT22;3764;48.126;11.594;2023-11-21T02:00:38;7.60;99.90
7445;DHT22;3764;48.126;11.594;2023-11-21T02:03:05;7.50;99.90
7445;DHT22;3764;48.126;11.594;2023-11-21T02:05:33;7.50;99.90
7445;DHT22;3764;48.126;11.594;2023-11-21T02:08:00;7.50;99.90
7445;DHT22;3764;48.126;11.594;2023-11-21T02:10:28;7.60;99.90
7445;DHT22;3764;48.126;11.594;2023-11-21T02:12:58;7.60;99.90
7445;DHT22;3764;48.126;11.594;2023-11-21T02:15:27;7.60;99.90
7445;DHT22;3764;48.126;11.594;2023-11-21T02:17:54;7.70;99.90
7445;DHT22;3764;48.126;11.594;2023-11-21T02:20:24;7.80;99.90
7445;DHT22;3764;48.126;11.594;2023-11-21T02:22:54;7.80;99.90
7445;DHT22;3764;48.126;11.594;2023-11-21T02:25:23;7.90;99.90
7445;DHT22;3764;48.126;11.594;2023-11-21T02:27:50;8.00;99.90
7445;DHT22;3764;48.126;11.594;2023-11-21T02:30:17;8.00;99.90
7445;DHT22;3764;48.126;11.594;2023-11-21T02:32:45;8.10;99.90
7445;DHT22;3764;48.126;11.594;2023-11-21T02:35:12;8.10;99.90
7445;DHT22;3764;48.126;11.594;2023-11-21T02:37:39;8.10;99.90
7445;DHT22;3764;48.126;11.594;2023-11-21T02:40:10;8.10;99.90
7445;DHT22;3764;48.126;11.594;2023-11-21T02:42:39;8.10;99.90
7445;DHT22;3764;48.126;11.594;2023-11-21T02:45:07;8.10;99.90
7445;DHT22;3764;48.126;11.594;2023-11-21T02:47:35;8.10;99.90
7445;DHT22;3764;48.126;11.594;2023-11-21T02:50:02;8.10;99.90
7445;DHT22;3764;48.126;11.594;2023-11-21T02:52:29;8.00;99.90
7445;DHT22;3764;48.126;11.594;2023-11-21T02:54:58;8.00;99.90
7445;DHT22;3764;48.126;11.594;2023-11-21T02:57:27;8.00;99.90
7445;DHT22;3764;48.126;11.594;2023-11-21T02:59:54;8.00;99.90
7445;DHT22;3764;48.126;11.594;2023-11-21T03:02:21;7.90;99.90
7445;DHT22;3764;48.126;11.594;2023-11-21T03:04:49;7.90;99.90
7445;DHT22;3764;48.126;11.594;2023-11-21T03:07:16;7.90;99.90
7445;DHT22;3764;48.126;11.594;2023-11-21T03:09:44;7.90;99.90
7445;DHT22;3764;48.126;11.594;2023-11-21T03:12:12;7.80;99.90
7445;DHT22;3764;48.126;11.594;2023-11-21T03:14:40;7.70;99.90
7445;DHT22;3764;48.126;11.594;2023-11-21T03:17:07;7.70;99.90
7445;DHT22;3764;48.126;11.594;2023-11-21T03:19:35;7.60;99.90
7445;DHT22;3764;48.126;11.594;2023-11-21T03:22:02;7.60;99.90
7445;DHT22;3764;48.126;11.594;2023-11-21T03:24:30;7.60;99.90
7445;DHT22;3764;48.126;11.594;2023-11-21T03:26:57;7.60;99.90
7445;DHT22;3764;48.126;11.594;2023-11-21T03:29:24;7.50;99.90
7445;DHT22;3764;48.126;11.594;2023-11-21T03:31:52;7.50;99.90
7445;DHT22;3764;48.126;11.594;2023-11-21T03:34:24;7.60;99.90
7445;DHT22;3764;48.126;11.594;2023-11-21T03:36:52;7.60;99.90
7445;DHT22;3764;48.126;11.594;2023-11-21T03:39:19;7.60;99.90
7445;DHT22;3764;48.126;11.594;2023-11-21T03:41:47;7.60;99.90
7445;DHT22;3764;48.126;11.594;2023-11-21T03:44:15;7.60;99.90
7445;DHT22;3764;48.126;11.594;2023-11-21T03:46:43;7.70;99.90
7445;DHT22;3764;48.126;11.594;2023-11-21T03:49:12;7.70;99.90
7445;DHT22;3764;48.126;11.594;2023-11-21T03:51:39;7.70;99.90
7445;DHT22;3764;48.126;11.594;2023-11-21T03:54:06;7.70;99.90
7445;DHT22;3764;48.126;11.594;2023-11-21T03:56:33;7.80;99.90
7445;DHT22;3764;48.126;11.594;2023-11-21T03:59:00;7.70;99.90
7445;DHT22;3764;48.126;11.594;2023-11-21T04:01:27;7.70;99.90
7445;DHT22;3764;48.126;11.594;2023-11-21T04:03:54;7.70;99.90
7445;DHT22;3764;48.126;11.594;2023-11-21T04:06:24;7.70;99.90
7445;DHT22;3764;48.126;11.594;2023-11-21T04:08:51;7.80;99.90
7445;DHT22;3764;48.126;11.594;2023-11-21T04:11:18;7.80;99.90
7445;DHT22;3764;48.126;11.594;2023-11-21T04:13:46;7.80;99.90
7445;DHT22;3764;48.126;11.594;2023-11-21T04:16:13;7.80;99.90
7445;DHT22;3764;48.126;11.594;2023-11-21T04:18:40;7.80;99.90
7445;DHT22;3764;48.126;11.594;2023-11-21T04:21:08;7.80;99.90
7445;DHT22;3764;48.126;11.594;2023-11-21T04:23:36;7.80;99.90
7445;DHT22;3764;48.126;11.594;2023-11-21T04:26:03;7.80;99.90
7445;DHT22;3764;48.126;11.594;2023-11-21T04:28:30;7.90;99.90
7445;DHT22;3764;48.126;11.594;2023-11-21T04:30:57;7.90;99.90
7445;DHT22;3764;48.126;11.594;2023-11-21T04:33:25;7.80;99.90
7445;DHT22;3764;48.126;11.594;2023-11-21T04:35:52;7.80;99.90
7445;DHT22;3764;48.126;11.594;2023-11-21T04:38:19;7.80;99.90
7445;DHT22;3764;48.126;11.594;2023-11-21T04:40:47;7.80;99.90
7445;DHT22;3764;48.126;11.594;2023-11-21T04:43:14;7.80;99.90
7445;DHT22;3764;48.126;11.594;2023-11-21T04:45:41;7.80;99.90
7445;DHT22;3764;48.126;11.594;2023-11-21T04:48:08;7.80;99.90
7445;DHT22;3764;48.126;11.594;2023-11-21T04:50:35;7.80;99.90
7445;DHT22;3764;48.126;11.594;2023-11-21T04:53:02;7.80;99.90
7445;DHT22;3764;48.126;11.594;2023-11-21T04:55:31;7.80;99.90
7445;DHT22;3764;48.126;11.594;2023-11-21T04:57:59;7.80;99.90
7445;DHT22;3764;48.126;11.594;2023-11-21T05:00:26;7.80;99.90
7445;DHT22;3764;48.126;11.594;2023-11-21T05:02:53;7.80;99.90
7445;DHT22;3764;48.126;11.594;2023-11-21T05:05:21;7.80;99.90
7445;DHT22;3764;48.126;11.594;2023-11-21T05:07:48;7.80;99.90
7445;DHT22;3764;48.126;11.594;2023-11-21T05:10:15;7.80;99.90
7445;DHT22;3764;48.126;11.594;2023-11-21T05:12:43;7.80;99.90
7445;DHT22;3764;48.126;11.594;2023-11-21T05:15:14;7.80;99.90
7445;DHT22;3764;48.126;11.594;2023-11-21T05:17:42;7.80;99.90
7445;DHT22;3764;48.126;11.594;2023-11-21T05:20:10;7.80;99.90
7445;DHT22;3764;48.126;11.594;2023-11-21T05:22:39;7.70;99.90
7445;DHT22;3764;48.126;11.594;2023-11-21T05:25:08;7.80;99.90
7445;DHT22;3764;48.126;11.594;2023-11-21T05:27:35;7.80;99.90
7445;DHT22;3764;48.126;11.594;2023-11-21T05:30:02;7.70;99.90
7445;DHT22;3764;48.126;11.594;2023-11-21T05:32:32;7.70;99.90
7445;DHT22;3764;48.126;11.594;2023-11-21T05:34:59;7.70;99.90
7445;DHT22;3764;48.126;11.594;2023-11-21T05:37:26;7.70;99.90
7445;DHT22;3764;48.126;11.594;2023-11-21T05:39:54;7.70;99.90
7445;DHT22;3764;48.126;11.594;2023-11-21T05:42:22;7.70;99.90
7445;DHT22;3764;48.126;11.594;2023-11-21T05:44:50;7.70;99.90
7445;DHT22;3764;48.126;11.594;2023-11-21T05:47:17;7.70;99.90
7445;DHT22;3764;48.126;11.594;2023-11-21T05:49:46;7.70;99.90
7445;DHT22;3764;48.126;11.594;2023-11-21T05:52:16;7.70;99.90
7445;DHT22;3764;48.126;11.594;2023-11-21T05:54:43;7.70;99.90
7445;DHT22;3764;48.126;11.594;2023-11-21T05:57:10;7.70;99.90
7445;DHT22;3764;48.126;11.594;2023-11-21T05:59:37;7.80;99.90
7445;DHT22;3764;48.126;11.594;2023-11-21T06:02:04;7.70;99.90
7445;DHT22;3764;48.126;11.594;2023-11-21T06:04:33;7.70;99.90
7445;DHT22;3764;48.126;11.594;2023-11-21T06:07:02;7.70;99.90
7445;DHT22;3764;48.126;11.594;2023-11-21T06:09:29;7.70;99.90
7445;DHT22;3764;48.126;11.594;2023-11-21T06:11:56;7.70;99.90
7445;DHT22;3764;48.126;11.594;2023-11-21T06:14:24;7.70;99.90
7445;DHT22;3764;48.126;11.594;2023-11-21T06:16:51;7.70;99.90
7445;DHT22;3764;48.126;11.594;2023-11-21T06:19:18;7.60;99.90
7445;DHT22;3764;48.126;11.594;2023-11-21T06:21:46;7.60;99.90
7445;DHT22;3764;48.126;11.594;2023-11-21T06:24:15;7.60;99.90
7445;DHT22;3764;48.126;11.594;2023-11-21T06:26:42;7.60;99.90
7445;DHT22;3764;48.126;11.594;2023-11-21T06:29:11;7.60;99.90
7445;DHT22;3764;48.126;11.594;2023-11-21T06:31:38;7.60;99.90
7445;DHT22;3764;48.126;11.594;2023-11-21T06:34:06;7.60;99.90
7445;DHT22;3764;48.126;11.594;2023-11-21T06:36:34;7.60;99.90
7445;DHT22;3764;48.126;11.594;2023-11-21T06:39:02;7.60;99.90
7445;DHT22;3764;48.126;11.594;2023-11-21T06:41:29;7.60;99.90
7445;DHT22;3764;48.126;11.594;2023-11-21T06:43:56;7.60;99.90
7445;DHT22;3764;48.126;11.594;2023-11-21T06:46:24;7.60;99.90
7445;DHT22;3764;48.126;11.594;2023-11-21T06:48:51;7.60;99.90
7445;DHT22;3764;48.126;11.594;2023-11-21T06:51:19;7.60;99.90
7445;DHT22;3764;48.126;11.594;2023-11-21T06:53:46;7.60;99.90
7445;DHT22;3764;48.126;11.594;2023-11-21T06:56:16;7.50;99.90
7445;DHT22;3764;48.126;11.594;2023-11-21T06:58:45;7.50;99.90
7445;DHT22;3764;48.126;11.594;2023-11-21T07:01:12;7.50;99.90
7445;DHT22;3764;48.126;11.594;2023-11-21T07:03:40;7.50;99.90
7445;DHT22;3764;48.126;11.594;2023-11-21T07:06:08;7.50;99.90
7445;DHT22;3764;48.126;11.594;2023-11-21T07:08:35;7.60;99.90
7445;DHT22;3764;48.126;11.594;2023-11-21T07:11:02;7.60;99.90
7445;DHT22;3764;48.126;11.594;2023-11-21T07:13:30;7.60;99.90
7445;DHT22;3764;48.126;11.594;2023-11-21T07:15:59;7.60;99.90
7445;DHT22;3764;48.126;11.594;2023-11-21T07:18:26;7.60;99.90
7445;DHT22;3764;48.126;11.594;2023-11-21T07:20:53;7.60;99.90
7445;DHT22;3764;48.126;11.594;2023-11-21T07:23:21;7.60;99.90
7445;DHT22;3764;48.126;11.594;2023-11-21T07:25:48;7.60;99.90
7445;DHT22;3764;48.126;11.594;2023-11-21T07:28:15;7.70;99.90
7445;DHT22;3764;48.126;11.594;2023-11-21T07:30:43;7.60;99.90
7445;DHT22;3764;48.126;11.594;2023-11-21T07:33:11;7.70;99.90
7445;DHT22;3764;48.126;11.594;2023-11-21T07:35:38;7.70;99.90
7445;DHT22;3764;48.126;11.594;2023-11-21T07:38:05;7.70;99.90
7445;DHT22;3764;48.126;11.594;2023-11-21T07:40:33;7.70;99.90
7445;DHT22;3764;48.126;11.594;2023-11-21T07:43:00;7.70;99.90
7445;DHT22;3764;48.126;11.594;2023-11-21T07:45:27;7.70;99.90
7445;DHT22;3764;48.126;11.594;2023-11-21T07:47:54;7.70;99.90
7445;DHT22;3764;48.126;11.594;2023-11-21T07:50:23;7.70;99.90
7445;DHT22;3764;48.126;11.594;2023-11-21T07:52:58;7.70;99.90
7445;DHT22;3764;48.126;11.594;2023-11-21T07:55:27;7.70;99.90
7445;DHT22;3764;48.126;11.594;2023-11-21T07:58:16;7.70;99.90
7445;DHT22;3764;48.126;11.594;2023-11-21T08:00:44;7.70;99.90
7445;DHT22;3764;48.126;11.594;2023-11-21T08:03:11;7.70;99.90
7445;DHT22;3764;48.126;11.594;2023-11-21T08:05:40;7.70;99.90
7445;DHT22;3764;48.126;11.594;2023-11-21T08:08:07;7.70;99.90
7445;DHT22;3764;48.126;11.594;2023-11-21T08:10:34;7.70;99.90
7445;DHT22;3764;48.126;11.594;2023-11-21T08:13:02;7.60;99.90
7445;DHT22;3764;48.126;11.594;2023-11-21T08:15:29;7.60;99.90
7445;DHT22;3764;48.126;11.594;2023-11-21T08:17:59;7.70;99.90
7445;DHT22;3764;48.126;11.594;2023-11-21T08:20:26;7.60;99.90
7445;DHT22;3764;48.126;11.594;2023-11-21T08:22:55;7.60;99.90
7445;DHT22;3764;48.126;11.594;2023-11-21T08:25:23;7.70;99.90
7445;DHT22;3764;48.126;11.594;2023-11-21T08:27:50;7.60;99.90
7445;DHT22;3764;48.126;11.594;2023-11-21T08:30:17;7.70;99.90
7445;DHT22;3764;48.126;11.594;2023-11-21T08:32:44;7.70;99.90
7445;DHT22;3764;48.126;11.594;2023-11-21T08:35:12;7.70;99.90
7445;DHT22;3764;48.126;11.594;2023-11-21T08:37:39;7.80;99.90
7445;DHT22;3764;48.126;11.594;2023-11-21T08:40:09;7.80;99.90
7445;DHT22;3764;48.126;11.594;2023-11-21T08:42:38;7.80;99.90
7445;DHT22;3764;48.126;11.594;2023-11-21T08:45:06;7.80;99.90
7445;DHT22;3764;48.126;11.594;2023-11-21T08:47:34;7.80;99.90
7445;DHT22;3764;48.126;11.594;2023-11-21T08:50:02;7.80;99.90
7445;DHT22;3764;48.126;11.594;2023-11-21T08:52:29;7.90;99.90
7445;DHT22;3764;48.126;11.594;2023-11-21T08:54:56;7.90;99.90
7445;DHT22;3764;48.126;11.594;2023-11-21T08:57:26;7.90;99.90
7445;DHT22;3764;48.126;11.594;2023-11-21T08:59:53;8.00;99.90
7445;DHT22;3764;48.126;11.594;2023-11-21T09:02:22;8.00;99.90
7445;DHT22;3764;48.126;11.594;2023-11-21T09:04:49;8.00;99.90
7445;DHT22;3764;48.126;11.594;2023-11-21T09:07:18;8.00;99.90
7445;DHT22;3764;48.126;11.594;2023-11-21T09:09:46;8.10;99.90
7445;DHT22;3764;48.126;11.594;2023-11-21T09:12:13;8.10;99.90
7445;DHT22;3764;48.126;11.594;2023-11-21T09:14:42;8.20;99.90
7445;DHT22;3764;48.126;11.594;2023-11-21T09:17:10;8.20;99.90
7445;DHT22;3764;48.126;11.594;2023-11-21T09:19:37;8.20;99.90
7445;DHT22;3764;48.126;11.594;2023-11-21T09:22:05;8.20;99.90
7445;DHT22;3764;48.126;11.594;2023-11-21T09:24:32;8.30;99.90
7445;DHT22;3764;48.126;11.594;2023-11-21T09:26:59;8.30;99.90
7445;DHT22;3764;48.126;11.594;2023-11-21T09:29:26;8.30;99.90
7445;DHT22;3764;48.126;11.594;2023-11-21T09:31:55;8.30;99.90
7445;DHT22;3764;48.126;11.594;2023-11-21T09:34:25;8.30;99.90
7445;DHT22;3764;48.126;11.594;2023-11-21T09:36:52;8.30;99.90
7445;DHT22;3764;48.126;11.594;2023-11-21T09:39:19;8.40;99.90
7445;DHT22;3764;48.126;11.594;2023-11-21T09:41:50;8.40;99.90
7445;DHT22;3764;48.126;11.594;2023-11-21T09:44:18;8.30;99.90
7445;DHT22;3764;48.126;11.594;2023-11-21T09:46:49;8.30;99.90
7445;DHT22;3764;48.126;11.594;2023-11-21T09:49:22;8.40;99.90
7445;DHT22;3764;48.126;11.594;2023-11-21T09:51:54;8.40;99.90
7445;DHT22;3764;48.126;11.594;2023-11-21T09:54:22;8.40;99.90
7445;DHT22;3764;48.126;11.594;2023-11-21T09:56:49;8.40;99.90
7445;DHT22;3764;48.126;11.594;2023-11-21T09:59:16;8.40;99.90
7445;DHT22;3764;48.126;11.594;2023-11-21T10:01:44;8.40;99.90
7445;DHT22;3764;48.126;11.594;2023-11-21T10:04:13;8.40;99.90
7445;DHT22;3764;48.126;11.594;2023-11-21T10:06:43;8.40;99.90
7445;DHT22;3764;48.126;11.594;2023-11-21T10:09:12;8.30;99.90
7445;DHT22;3764;48.126;11.594;2023-11-21T10:11:41;8.30;99.90
7445;DHT22;3764;48.126;11.594;2023-11-21T10:14:10;8.40;99.90
7445;DHT22;3764;48.126;11.594;2023-11-21T10:16:38;8.40;99.90
7445;DHT22;3764;48.126;11.594;2023-11-21T10:19:09;8.40;99.90
7445;DHT22;3764;48.126;11.594;2023-11-21T10:21:42;8.50;99.90
7445;DHT22;3764;48.126;11.594;2023-11-21T10:24:10;8.50;99.90
7445;DHT22;3764;48.126;11.594;2023-11-21T10:26:38;8.60;99.90
7445;DHT22;3764;48.126;11.594;2023-11-21T10:29:05;8.60;99.90
7445;DHT22;3764;48.126;11.594;2023-11-21T10:31:33;8.70;99.90
7445;DHT22;3764;48.126;11.594;2023-11-21T10:34:14;8.70;99.90
7445;DHT22;3764;48.126;11.594;2023-11-21T10:36:43;8.70;99.90
7445;DHT22;3764;48.126;11.594;2023-11-21T10:39:14;8.70;99.90
7445;DHT22;3764;48.126;11.594;2023-11-21T10:41:44;8.80;99.90
7445;DHT22;3764;48.126;11.594;2023-11-21T10:44:14;8.70;99.90
7445;DHT22;3764;48.126;11.594;2023-11-21T10:46:46;8.80;99.90
7445;DHT22;3764;48.126;11.594;2023-11-21T10:49:17;8.80;99.90
7445;DHT22;3764;48.126;11.594;2023-11-21T10:51:45;8.80;99.90
7445;DHT22;3764;48.126;11.594;2023-11-21T10:54:17;8.80;99.90
7445;DHT22;3764;48.126;11.594;2023-11-21T10:56:46;8.80;99.90
7445;DHT22;3764;48.126;11.594;2023-11-21T10:59:17;8.80;99.90
7445;DHT22;3764;48.126;11.594;2023-11-21T11:01:47;8.80;99.90
7445;DHT22;3764;48.126;11.594;2023-11-21T11:04:18;8.80;99.90
7445;DHT22;3764;48.126;11.594;2023-11-21T11:06:54;8.90;99.90
7445;DHT22;3764;48.126;11.594;2023-11-21T11:09:22;8.90;99.90
7445;DHT22;3764;48.126;11.594;2023-11-21T11:11:50;8.90;99.90
7445;DHT22;3764;48.126;11.594;2023-11-21T11:14:19;8.90;99.90
7445;DHT22;3764;48.126;11.594;2023-11-21T11:16:53;8.90;99.90
7445;DHT22;3764;48.126;11.594;2023-11-21T11:19:20;8.90;99.90
7445;DHT22;3764;48.126;11.594;2023-11-21T11:21:53;8.90;99.90
7445;DHT22;3764;48.126;11.594;2023-11-21T11:24:39;9.10;99.90
7445;DHT22;3764;48.126;11.594;2023-11-21T11:27:14;9.20;99.90
7445;DHT22;3764;48.126;11.594;2023-11-21T11:29:50;9.30;99.90
7445;DHT22;3764;48.126;11.594;2023-11-21T11:32:28;9.30;99.90
7445;DHT22;3764;48.126;11.594;2023-11-21T11:35:04;9.20;99.90
7445;DHT22;3764;48.126;11.594;2023-11-21T11:37:32;9.20;99.90
7445;DHT22;3764;48.126;11.594;2023-11-21T11:40:00;9.10;99.90
7445;DHT22;3764;48.126;11.594;2023-11-21T11:42:27;9.10;99.90
7445;DHT22;3764;48.126;11.594;2023-11-21T11:44:55;9.10;99.90
7445;DHT22;3764;48.126;11.594;2023-11-21T11:47:25;9.10;99.90
7445;DHT22;3764;48.126;11.594;2023-11-21T11:49:58;9.10;99.90
7445;DHT22;3764;48.126;11.594;2023-11-21T11:52:37;9.10;99.90
7445;DHT22;3764;48.126;11.594;2023-11-21T11:55:07;9.10;99.90
7445;DHT22;3764;48.126;11.594;2023-11-21T11:57:37;9.10;99.90
7445;DHT22;3764;48.126;11.594;2023-11-21T12:00:28;9.10;99.90
7445;DHT22;3764;48.126;11.594;2023-11-21T12:03:05;9.20;99.90
7445;DHT22;3764;48.126;11.594;2023-11-21T12:05:34;9.20;99.90
7445;DHT22;3764;48.126;11.594;2023-11-21T12:08:06;9.20;99.90
7445;DHT22;3764;48.126;11.594;2023-11-21T12:10:35;9.20;99.90
7445;DHT22;3764;48.126;11.594;2023-11-21T12:13:05;9.20;99.90
7445;DHT22;3764;48.126;11.594;2023-11-21T12:15:33;9.10;99.90
7445;DHT22;3764;48.126;11.594;2023-11-21T12:18:01;9.10;99.90
7445;DHT22;3764;48.126;11.594;2023-11-21T12:20:29;9.20;99.90
7445;DHT22;3764;48.126;11.594;2023-11-21T12:22:59;9.20;99.90
7445;DHT22;3764;48.126;11.594;2023-11-21T12:25:28;9.20;99.90
7445;DHT22;3764;48.126;11.594;2023-11-21T12:27:58;9.20;99.90
7445;DHT22;3764;48.126;11.594;2023-11-21T12:30:28;9.20;99.90
7445;DHT22;3764;48.126;11.594;2023-11-21T12:32:58;9.20;99.90
7445;DHT22;3764;48.126;11.594;2023-11-21T12:35:27;9.20;99.90
7445;DHT22;3764;48.126;11.594;2023-11-21T12:37:56;9.20;99.90
7445;DHT22;3764;48.126;11.594;2023-11-21T12:40:24;9.20;99.90
7445;DHT22;3764;48.126;11.594;2023-11-21T12:42:55;9.20;99.90
7445;DHT22;3764;48.126;11.594;2023-11-21T12:45:24;9.30;99.90
7445;DHT22;3764;48.126;11.594;2023-11-21T12:47:55;9.30;99.90
7445;DHT22;3764;48.126;11.594;2023-11-21T12:50:26;9.30;99.90
7445;DHT22;3764;48.126;11.594;2023-11-21T12:53:00;9.30;99.90
7445;DHT22;3764;48.126;11.594;2023-11-21T12:55:30;9.30;99.90
7445;DHT22;3764;48.126;11.594;2023-11-21T12:58:02;9.30;99.90
7445;DHT22;3764;48.126;11.594;2023-11-21T13:00:36;9.40;99.90
7445;DHT22;3764;48.126;11.594;2023-11-21T13:03:05;9.40;99.90
7445;DHT22;3764;48.126;11.594;2023-11-21T13:05:34;9.30;99.90
7445;DHT22;3764;48.126;11.594;2023-11-21T13:08:05;9.30;99.90
7445;DHT22;3764;48.126;11.594;2023-11-21T13:10:36;9.20;99.90
7445;DHT22;3764;48.126;11.594;2023-11-21T13:13:05;9.10;99.90
7445;DHT22;3764;48.126;11.594;2023-11-21T13:15:34;9.00;99.90
7445;DHT22;3764;48.126;11.594;2023-11-21T13:18:06;8.90;99.90
7445;DHT22;3764;48.126;11.594;2023-11-21T13:20:37;8.70;99.90
7445;DHT22;3764;48.126;11.594;2023-11-21T13:23:08;8.60;99.90
7445;DHT22;3764;48.126;11.594;2023-11-21T13:25:37;8.60;99.90
7445;DHT22;3764;48.126;11.594;2023-11-21T13:28:08;8.50;99.90
7445;DHT22;3764;48.126;11.594;2023-11-21T13:30:36;8.40;99.90
7445;DHT22;3764;48.126;11.594;2023-11-21T13:33:06;8.50;99.90
7445;DHT22;3764;48.126;11.594;2023-11-21T13:35:34;8.50;99.90
7445;DHT22;3764;48.126;11.594;2023-11-21T13:38:05;8.50;99.90
7445;DHT22;3764;48.126;11.594;2023-11-21T13:40:33;8.60;99.90
7445;DHT22;3764;48.126;11.594;2023-11-21T13:43:05;8.60;99.90
7445;DHT22;3764;48.126;11.594;2023-11-21T13:45:37;8.60;99.90
7445;DHT22;3764;48.126;11.594;2023-11-21T13:48:05;8.70;99.90
7445;DHT22;3764;48.126;11.594;2023-11-21T13:50:35;8.70;99.90
7445;DHT22;3764;48.126;11.594;2023-11-21T13:53:03;8.70;99.90
7445;DHT22;3764;48.126;11.594;2023-11-21T13:55:36;8.70;99.90
7445;DHT22;3764;48.126;11.594;2023-11-21T13:58:05;8.70;99.90
7445;DHT22;3764;48.126;11.594;2023-11-21T14:00:37;8.80;99.90
7445;DHT22;3764;48.126;11.594;2023-11-21T14:03:11;8.80;99.90
7445;DHT22;3764;48.126;11.594;2023-11-21T14:05:46;8.80;99.90
7445;DHT22;3764;48.126;11.594;2023-11-21T14:08:18;8.80;99.90
7445;DHT22;3764;48.126;11.594;2023-11-21T14:10:46;8.80;99.90
7445;DHT22;3764;48.126;11.594;2023-11-21T14:13:17;8.80;99.90
7445;DHT22;3764;48.126;11.594;2023-11-21T14:15:50;8.80;99.90
7445;DHT22;3764;48.126;11.594;2023-11-21T14:18:23;8.80;99.90
7445;DHT22;3764;48.126;11.594;2023-11-21T14:20:56;8.70;99.90
7445;DHT22;3764;48.126;11.594;2023-11-21T14:23:23;8.70;99.90
7445;DHT22;3764;48.126;11.594;2023-11-21T14:25:50;8.60;99.90
7445;DHT22;3764;48.126;11.594;2023-11-21T14:28:17;8.60;99.90
7445;DHT22;3764;48.126;11.594;2023-11-21T14:30:45;8.50;99.90
7445;DHT22;3764;48.126;11.594;2023-11-21T14:33:14;8.50;99.90
7445;DHT22;3764;48.126;11.594;2023-11-21T14:35:42;8.50;99.90
7445;DHT22;3764;48.126;11.594;2023-11-21T14:38:10;8.50;99.90
7445;DHT22;3764;48.126;11.594;2023-11-21T14:40:39;8.50;99.90
7445;DHT22;3764;48.126;11.594;2023-11-21T14:43:06;8.40;99.90
7445;DHT22;3764;48.126;11.594;2023-11-21T14:45:34;8.40;99.90
7445;DHT22;3764;48.126;11.594;2023-11-21T14:48:01;8.30;99.90
7445;DHT22;3764;48.126;11.594;2023-11-21T14:50:35;8.30;99.90
7445;DHT22;3764;48.126;11.594;2023-11-21T14:53:19;8.30;99.90
7445;DHT22;3764;48.126;11.594;2023-11-21T14:56:07;8.30;99.90
7445;DHT22;3764;48.126;11.594;2023-11-21T14:58:34;8.30;99.90
7445;DHT22;3764;48.126;11.594;2023-11-21T15:01:02;8.30;99.90
7445;DHT22;3764;48.126;11.594;2023-11-21T15:03:29;8.30;99.90
7445;DHT22;3764;48.126;11.594;2023-11-21T15:06:17;8.30;99.90
7445;DHT22;3764;48.126;11.594;2023-11-21T15:08:53;8.30;99.90
7445;DHT22;3764;48.126;11.594;2023-11-21T15:11:42;8.30;99.90
7445;DHT22;3764;48.126;11.594;2023-11-21T15:14:09;8.30;99.90
7445;DHT22;3764;48.126;11.594;2023-11-21T15:16:39;8.30;99.90
7445;DHT22;3764;48.126;11.594;2023-11-21T15:19:09;8.30;99.90
7445;DHT22;3764;48.126;11.594;2023-11-21T15:21:39;8.30;99.90
7445;DHT22;3764;48.126;11.594;2023-11-21T15:24:07;8.30;99.90
7445;DHT22;3764;48.126;11.594;2023-11-21T15:26:34;8.30;99.90
7445;DHT22;3764;48.126;11.594;2023-11-21T15:29:01;8.30;99.90
7445;DHT22;3764;48.126;11.594;2023-11-21T15:31:28;8.30;99.90
7445;DHT22;3764;48.126;11.594;2023-11-21T15:33:58;8.30;99.90
7445;DHT22;3764;48.126;11.594;2023-11-21T15:36:26;8.30;99.90
7445;DHT22;3764;48.126;11.594;2023-11-21T15:38:54;8.30;99.90
7445;DHT22;3764;48.126;11.594;2023-11-21T15:41:21;8.30;99.90
7445;DHT22;3764;48.126;11.594;2023-11-21T15:43:48;8.30;99.90
7445;DHT22;3764;48.126;11.594;2023-11-21T15:46:16;8.30;99.90
7445;DHT22;3764;48.126;11.594;2023-11-21T15:48:44;8.30;99.90
7445;DHT22;3764;48.126;11.594;2023-11-21T15:51:16;8.30;99.90
7445;DHT22;3764;48.126;11.594;2023-11-21T15:53:44;8.30;99.90
7445;DHT22;3764;48.126;11.594;2023-11-21T15:56:12;8.40;99.90
7445;DHT22;3764;48.126;11.594;2023-11-21T15:58:40;8.40;99.90
7445;DHT22;3764;48.126;11.594;2023-11-21T16:01:08;8.40;99.90
7445;DHT22;3764;48.126;11.594;2023-11-21T16:03:38;8.30;99.90
7445;DHT22;3764;48.126;11.594;2023-11-21T16:06:06;8.30;99.90
7445;DHT22;3764;48.126;11.594;2023-11-21T16:08:36;8.30;99.90
7445;DHT22;3764;48.126;11.594;2023-11-21T16:11:04;8.30;99.90